KBGR/BGR METAR and TAF weather

Enter ICAO airport designator
Station Type Date Time Source
KBGR METAR 2019/08/24 08:53 UTC NOAA

KBGR 240853Z 00000KT 10SM FEW037 12/11 A3006 RMK AO2 SLP179 T01220106 52019


Station Type Date Time Source
KBGR Decoded METAR 2019/08/24 08:53 UTC NOAA

Station name not available
Aug 24, 2019 - 04:53 AM EDT / 2019.08.24 0853 UTC
Wind: Calm:0
Visibility: 10 mile(s):0
Sky conditions: mostly clear
Temperature: 54.0 F (12.2 C)
Dew Point: 51.1 F (10.6 C)
Relative Humidity: 89%
Pressure (altimeter): 30.06 in. Hg (1017 hPa)
Pressure tendency: 0.06 inches (1.9 hPa) higher than three hours ago
ob: KBGR 240853Z 00000KT 10SM FEW037 12/11 A3006 RMK AO2 SLP179 T01220106 52019
cycle: 9

Station Type Date Time Source
KBGR TAF 2019/08/24 06:22 UTC NOAA

TAF KBGR 240520Z 2406/2506 31005KT P6SM FEW100
FM241100 34006KT P6SM FEW100
FM241400 36009KT P6SM SCT040
FM242300 03005KT P6SM SCT070
FM250300 00000KT P6SM FEW100

Example: see airport list